Time;durP1;ratioP1;P1;durP2;ratioP2;P2;SDS_P1;SDS_P2;PMS_P1;PMS_P2;Temp;Humidity;BMP_temperature;BMP_pressure;BME280_temperature;BME280_humidity;BME280_pressure;Samples;Min_cycle;Max_cycle;Signal;HPM_P1;HPM_P2
2024/01/22 00:02:15;;;;;;;8.23;3.10;;;6.00;99.90;;;5.83;79.34;100203.53;4929828;29;20898;-86
2024/01/22 00:04:45;;;;;;;8.23;3.40;;;6.10;99.90;;;5.83;79.48;100198.22;4914320;29;20102;-87
2024/01/22 00:07:13;;;;;;;8.60;3.00;;;6.10;99.90;;;5.85;79.50;100173.19;4912719;29;20055;-87
2024/01/22 00:09:42;;;;;;;8.63;3.20;;;6.30;99.90;;;5.87;79.59;100171.19;4890336;29;20058;-87
2024/01/22 00:12:10;;;;;;;9.05;3.08;;;6.10;99.90;;;5.89;79.51;100169.19;4913626;29;20134;-87
2024/01/22 00:14:38;;;;;;;9.38;3.67;;;6.20;99.90;;;5.89;79.13;100157.78;4890116;29;20044;-87
2024/01/22 00:17:06;;;;;;;9.00;3.40;;;6.20;99.90;;;5.86;79.08;100160.81;4913386;29;20079;-86
2024/01/22 00:19:36;;;;;;;7.63;3.10;;;6.20;99.90;;;5.91;79.17;100151.34;4913583;29;20547;-87
2024/01/22 00:22:06;;;;;;;9.18;3.10;;;6.20;99.90;;;5.90;79.39;100143.53;4929030;29;20055;-85
2024/01/22 00:24:36;;;;;;;9.52;3.67;;;6.20;99.90;;;5.90;79.51;100130.28;4897954;29;20110;-87
2024/01/22 00:27:06;;;;;;;7.25;3.25;;;6.20;99.90;;;5.92;79.24;100141.56;4920914;29;20047;-87
2024/01/22 00:29:33;;;;;;;8.02;3.35;;;6.20;99.90;;;5.94;79.54;100136.88;4963776;28;20050;-85
2024/01/22 00:32:01;;;;;;;5.32;2.85;;;6.20;99.90;;;5.97;79.58;100141.00;4965885;28;20057;-87
2024/01/22 00:34:28;;;;;;;6.30;3.08;;;6.30;99.90;;;6.04;79.52;100128.63;4975310;28;20072;-87
2024/01/22 00:36:55;;;;;;;6.70;3.00;;;6.30;99.90;;;6.01;79.52;100121.09;5007712;28;20065;-84
2024/01/22 00:39:23;;;;;;;6.88;3.20;;;6.30;99.90;;;6.03;79.60;100119.06;4966888;28;20053;-87
2024/01/22 00:41:51;;;;;;;9.27;3.28;;;6.40;99.90;;;6.06;79.75;100086.91;4991235;28;20054;-88
2024/01/22 00:44:24;;;;;;;7.07;3.00;;;6.40;99.90;;;6.09;79.51;100082.03;4975116;28;20151;-87
2024/01/22 00:46:51;;;;;;;7.38;2.88;;;6.40;99.90;;;6.08;79.36;100087.53;4974610;28;20420;-87
2024/01/22 00:49:19;;;;;;;9.73;3.67;;;6.40;99.90;;;6.15;79.58;100080.47;5008789;28;20129;-87
2024/01/22 00:51:47;;;;;;;7.68;3.28;;;6.50;99.90;;;6.12;79.47;100088.78;4989729;28;20052;-87
2024/01/22 00:54:15;;;;;;;7.60;3.10;;;6.50;99.90;;;6.17;79.55;100059.91;4991044;28;20054;-87
2024/01/22 00:56:42;;;;;;;7.95;3.15;;;6.50;99.90;;;6.19;79.58;100045.47;4991747;28;20057;-87
2024/01/22 00:59:09;;;;;;;7.25;3.30;;;6.50;99.90;;;6.19;79.46;100040.16;5008716;28;20132;-86
2024/01/22 01:01:42;;;;;;;6.60;2.97;;;6.50;99.90;;;6.21;79.20;100037.34;4974694;28;20053;-88
2024/01/22 01:04:12;;;;;;;6.70;2.85;;;6.50;99.90;;;6.19;79.12;100021.63;4974613;28;20046;-87
2024/01/22 01:06:45;;;;;;;8.68;3.35;;;6.50;99.90;;;6.23;79.51;100008.00;4991302;28;20058;-87
2024/01/22 01:09:13;;;;;;;7.53;2.70;;;6.50;99.90;;;6.25;79.59;100006.00;4973557;28;20049;-87
2024/01/22 01:11:40;;;;;;;6.85;2.72;;;6.60;99.90;;;6.26;79.55;100007.63;5008897;28;20154;-87
2024/01/22 01:14:10;;;;;;;6.95;3.22;;;6.60;99.90;;;6.29;79.52;99986.84;5008409;28;20046;-86
2024/01/22 01:16:38;;;;;;;6.60;2.70;;;6.60;99.90;;;6.29;79.54;99986.03;4974584;28;20065;-85
2024/01/22 01:19:11;;;;;;;8.05;3.13;;;6.60;99.90;;;6.34;79.42;100007.47;5008076;28;20390;-84
2024/01/22 01:21:39;;;;;;;7.32;3.00;;;6.70;99.90;;;6.37;79.14;100007.06;4990917;28;20313;-86
2024/01/22 01:24:07;;;;;;;6.45;3.00;;;6.60;99.90;;;6.36;79.44;99982.44;4990622;28;20045;-85
2024/01/22 01:26:34;;;;;;;7.90;2.83;;;6.60;99.90;;;6.38;79.60;99963.69;4972805;28;20057;-86
2024/01/22 01:29:02;;;;;;;7.18;2.90;;;6.70;99.90;;;6.40;79.47;99970.44;5007444;28;20505;-87
2024/01/22 01:31:31;;;;;;;9.00;3.20;;;6.70;99.90;;;6.41;79.76;99947.41;4990613;28;20131;-87
2024/01/22 01:33:58;;;;;;;6.05;2.80;;;6.80;99.90;;;6.44;79.87;99962.91;4973903;28;20231;-87
2024/01/22 01:36:28;;;;;;;5.28;2.67;;;6.80;99.90;;;6.46;79.94;99937.03;5007963;28;20046;-86
2024/01/22 01:38:57;;;;;;;6.00;2.40;;;6.80;99.90;;;6.47;79.95;99951.09;5007448;28;20046;-86
2024/01/22 01:41:27;;;;;;;8.05;2.72;;;6.80;99.90;;;6.51;80.00;99931.16;5008325;28;20474;-87
2024/01/22 01:43:55;;;;;;;6.72;2.58;;;6.90;99.90;;;6.54;80.15;99933.38;5007075;28;20584;-88
2024/01/22 01:46:22;;;;;;;6.03;2.72;;;6.90;99.90;;;6.56;79.96;99939.31;5008186;28;20541;-87
2024/01/22 01:48:50;;;;;;;5.93;2.20;;;6.90;99.90;;;6.55;79.98;99938.50;4965769;28;20046;-85
2024/01/22 01:51:18;;;;;;;8.65;2.75;;;6.90;99.90;;;6.59;80.18;99950.34;5008011;28;20065;-87
2024/01/22 01:53:48;;;;;;;6.53;2.92;;;7.00;99.90;;;6.69;80.01;99950.78;5008004;28;20501;-87
2024/01/22 01:56:16;;;;;;;6.78;2.50;;;7.00;99.90;;;6.74;79.61;99967.94;5007717;28;20453;-87
2024/01/22 01:58:47;;;;;;;7.70;2.72;;;7.00;99.90;;;6.74;79.47;99955.50;5010380;28;20053;-87
2024/01/22 02:01:17;;;;;;;7.50;2.40;;;7.00;99.90;;;6.72;79.42;99971.56;4992897;28;20050;-87
2024/01/22 02:03:46;;;;;;;7.55;2.75;;;7.00;99.90;;;6.77;79.72;99972.81;5011909;28;20553;-87
2024/01/22 02:06:14;;;;;;;4.80;2.38;;;7.00;99.90;;;6.80;79.43;99972.44;4993747;28;20112;-88
2024/01/22 02:08:52;;;;;;;7.32;2.35;;;7.00;99.90;;;6.79;79.35;99953.06;5012895;28;20460;-87
2024/01/22 02:11:24;;;;;;;5.75;2.40;;;7.10;99.90;;;6.80;79.46;99932.69;4987460;28;20145;-85
2024/01/22 02:13:54;;;;;;;5.97;2.08;;;7.10;99.90;;;6.84;79.55;99941.88;4996181;28;20069;-87
2024/01/22 02:16:23;;;;;;;5.68;2.10;;;7.10;99.90;;;6.89;79.17;99944.75;4977802;28;20050;-86
2024/01/22 02:18:50;;;;;;;6.07;1.98;;;7.20;99.90;;;6.91;79.24;99938.19;5012453;28;20529;-86
2024/01/22 02:21:19;;;;;;;5.15;2.10;;;7.20;99.90;;;6.92;79.11;99934.53;4970694;28;20050;-86
2024/01/22 02:25:07;;;;;;;4.63;2.10;;;7.20;99.90;;;6.93;79.08;99901.72;5007140;28;20074;-87
2024/01/22 02:39:59;;;;;;;5.38;2.03;;;7.40;99.90;;;7.11;78.92;99877.25;5279007;22;20053;-85
2024/01/22 02:47:27;;;;;;;7.78;2.47;;;7.40;99.90;;;7.16;79.04;99866.03;4870924;29;19931;-87
2024/01/22 02:49:54;;;;;;;5.18;2.10;;;7.40;99.90;;;7.18;79.11;99832.19;4849994;29;20566;-84
2024/01/22 02:52:21;;;;;;;6.68;2.00;;;7.60;99.90;;;7.20;79.07;99817.69;4947022;28;20146;-85
2024/01/22 02:55:00;;;;;;;5.40;1.67;;;7.60;99.90;;;7.19;78.88;99783.44;4945524;28;20053;-85
2024/01/22 02:57:27;;;;;;;4.05;2.10;;;7.50;99.90;;;7.20;78.73;99793.81;4961013;28;20047;-84
2024/01/22 02:59:58;;;;;;;7.93;2.00;;;7.50;99.90;;;7.32;78.68;99803.81;4960912;28;20061;-86
2024/01/22 03:02:26;;;;;;;3.83;1.90;;;7.60;99.90;;;7.32;78.71;99809.09;4960376;28;20067;-83
2024/01/22 03:04:54;;;;;;;6.60;2.05;;;7.60;99.90;;;7.32;78.78;99817.06;4961018;28;20082;-84
2024/01/22 03:07:21;;;;;;;4.28;1.67;;;7.60;99.90;;;7.34;78.53;99809.72;4960272;28;20515;-85
2024/01/22 03:09:49;;;;;;;4.72;1.73;;;7.60;99.90;;;7.34;78.77;99818.50;4960150;28;20503;-84
2024/01/22 03:12:18;;;;;;;3.55;1.67;;;7.60;99.90;;;7.35;78.67;99825.44;4945203;28;20992;-86
2024/01/22 03:14:46;;;;;;;4.45;1.70;;;7.60;99.90;;;7.38;78.54;99811.78;4944651;28;20106;-85
2024/01/22 03:17:15;;;;;;;4.38;1.88;;;7.60;99.90;;;7.36;78.65;99808.50;4912683;28;20150;-83
2024/01/22 03:19:42;;;;;;;4.45;1.60;;;7.70;99.90;;;7.37;78.67;99811.97;4944489;28;20094;-85
2024/01/22 03:22:10;;;;;;;4.25;1.80;;;7.60;99.90;;;7.40;78.80;99793.78;4967958;28;20041;-85
2024/01/22 03:24:38;;;;;;;4.28;1.75;;;7.70;99.90;;;7.43;78.33;99806.66;4992055;28;20073;-83
2024/01/22 03:27:06;;;;;;;2.67;1.40;;;7.70;99.90;;;7.43;78.59;99811.16;4999411;28;20061;-84
2024/01/22 03:29:35;;;;;;;3.55;1.55;;;7.60;99.90;;;7.42;78.68;99805.03;4993475;28;20057;-84
2024/01/22 03:32:02;;;;;;;3.42;1.40;;;7.60;99.90;;;7.47;78.52;99784.00;4993552;28;20076;-84
2024/01/22 03:34:30;;;;;;;4.10;1.63;;;7.70;99.90;;;7.47;78.76;99772.56;5009375;28;20050;-85
2024/01/22 03:36:58;;;;;;;4.35;1.30;;;7.70;99.90;;;7.52;78.72;99796.66;5010103;28;20069;-84
2024/01/22 03:39:25;;;;;;;6.25;1.90;;;7.80;99.90;;;7.54;78.65;99777.84;4993153;28;20103;-84
2024/01/22 03:41:53;;;;;;;5.40;1.70;;;7.80;99.90;;;7.53;78.48;99770.94;5008033;28;20053;-84
2024/01/22 03:44:20;;;;;;;6.40;2.10;;;7.80;99.90;;;7.53;79.05;99765.63;4992764;28;20560;-85
2024/01/22 03:46:49;;;;;;;6.22;1.60;;;7.80;99.90;;;7.53;80.85;99760.31;4992737;28;20093;-84
2024/01/22 03:49:17;;;;;;;5.32;1.88;;;7.80;99.90;;;7.50;82.23;99766.84;5010145;28;20108;-84
2024/01/22 03:51:45;;;;;;;5.03;1.65;;;7.80;99.90;;;7.50;82.65;99766.84;4992489;28;20050;-84
2024/01/22 03:54:12;;;;;;;6.10;1.58;;;7.80;99.90;;;7.44;83.07;99760.53;5009951;28;20046;-85
2024/01/22 03:56:39;;;;;;;8.10;1.92;;;7.70;99.90;;;7.45;83.92;99742.78;5009381;28;20081;-83
2024/01/22 03:59:07;;;;;;;6.88;1.80;;;7.70;99.90;;;7.41;85.38;99726.44;5009482;28;20042;-85
2024/01/22 04:01:34;;;;;;;4.80;2.00;;;7.60;99.90;;;7.41;85.68;99723.78;4974142;28;20046;-84
2024/01/22 04:04:05;;;;;;;6.47;2.33;;;7.60;99.90;;;7.37;86.69;99727.06;5009645;28;20061;-84
2024/01/22 04:06:33;;;;;;;5.32;2.05;;;7.60;99.90;;;7.34;87.53;99725.66;5009160;28;20046;-87
2024/01/22 04:09:00;;;;;;;4.43;1.83;;;7.60;99.90;;;7.33;87.62;99715.28;4991968;28;20144;-85
2024/01/22 04:11:27;;;;;;;7.85;2.25;;;7.50;99.90;;;7.30;87.80;99719.16;4975442;28;20087;-85
2024/01/22 04:13:55;;;;;;;7.32;2.05;;;7.50;99.90;;;7.29;87.58;99722.81;4934313;28;20061;-85
2024/01/22 04:16:22;;;;;;;6.53;2.17;;;7.50;99.90;;;7.31;88.07;99712.81;5009090;28;20081;-85
2024/01/22 04:18:50;;;;;;;5.90;2.15;;;7.50;99.90;;;7.32;88.85;99710.97;4990472;28;20060;-85
2024/01/22 04:21:20;;;;;;;5.85;2.17;;;7.50;99.90;;;7.33;89.01;99710.78;4991431;28;20456;-84
2024/01/22 04:23:48;;;;;;;5.10;2.10;;;7.50;99.90;;;7.33;89.30;99709.97;4991321;28;20600;-86
2024/01/22 04:26:15;;;;;;;6.22;2.22;;;7.50;99.90;;;7.34;89.50;99707.09;4966952;28;20050;-85
2024/01/22 04:28:42;;;;;;;5.85;2.17;;;7.60;99.90;;;7.34;89.71;99704.44;5008949;28;20420;-84
2024/01/22 04:31:10;;;;;;;6.40;2.20;;;7.50;99.90;;;7.35;90.12;99697.31;4991616;28;20056;-85
2024/01/22 04:33:38;;;;;;;5.03;1.95;;;7.60;99.90;;;7.37;90.08;99695.25;4991482;28;20134;-85
2024/01/22 04:36:06;;;;;;;5.05;1.80;;;7.50;99.90;;;7.35;89.84;99692.81;5006349;28;20049;-85
2024/01/22 04:38:35;;;;;;;3.33;1.73;;;7.50;99.90;;;7.36;90.19;99685.66;5007388;28;20169;-85
2024/01/22 04:41:03;;;;;;;5.72;2.10;;;7.50;99.90;;;7.31;90.72;99680.16;4990859;28;20133;-85
2024/01/22 04:43:30;;;;;;;4.40;1.90;;;7.50;99.90;;;7.33;90.67;99691.41;4990690;28;20050;-85
2024/01/22 04:45:59;;;;;;;6.10;2.03;;;7.50;99.90;;;7.32;91.00;99697.72;4990881;28;20046;-85
2024/01/22 04:48:27;;;;;;;5.13;2.00;;;7.50;99.90;;;7.33;91.89;99675.50;4983391;28;20111;-85
2024/01/22 04:50:55;;;;;;;4.28;2.05;;;7.50;99.90;;;7.32;92.46;99674.69;4989699;28;20108;-85
2024/01/22 04:53:24;;;;;;;4.93;2.00;;;7.60;99.90;;;7.31;92.34;99680.16;5008497;28;20056;-85
2024/01/22 04:55:56;;;;;;;5.13;2.25;;;7.60;99.90;;;7.30;92.69;99684.66;4991374;28;20045;-85
2024/01/22 04:58:24;;;;;;;4.28;1.80;;;7.60;99.90;;;7.33;92.58;99654.28;4991174;28;20530;-85
2024/01/22 05:00:51;;;;;;;4.28;1.90;;;7.60;99.90;;;7.32;92.69;99680.00;4987688;28;20077;-85
2024/01/22 05:03:19;;;;;;;5.68;1.98;;;7.60;99.90;;;7.31;92.76;99677.53;5008777;28;20057;-84
2024/01/22 05:05:47;;;;;;;4.63;2.17;;;7.50;99.90;;;7.36;92.66;99653.84;4995691;28;20121;-86
2024/01/22 05:08:15;;;;;;;5.53;2.10;;;7.60;99.90;;;7.35;92.48;99668.13;4993951;28;20050;-84
2024/01/22 05:10:42;;;;;;;4.20;2.00;;;7.60;99.90;;;7.33;92.40;99656.94;5008066;28;20540;-86
2024/01/22 05:13:13;;;;;;;4.72;2.25;;;7.60;99.90;;;7.36;92.55;99667.91;5009964;28;20076;-85
2024/01/22 05:15:41;;;;;;;7.18;2.00;;;7.60;99.90;;;7.35;92.07;99655.69;5011138;28;20501;-84
2024/01/22 05:18:09;;;;;;;5.65;2.28;;;7.60;99.90;;;7.36;92.53;99664.44;4993142;28;20268;-84
2024/01/22 05:20:37;;;;;;;6.93;2.00;;;7.60;99.90;;;7.35;92.98;99652.22;4975581;28;20108;-83
2024/01/22 05:23:05;;;;;;;5.28;1.80;;;7.60;99.90;;;7.34;92.95;99677.94;5009431;28;20065;-84
2024/01/22 05:25:33;;;;;;;4.43;2.08;;;7.60;99.90;;;7.34;93.15;99659.34;5010729;28;20084;-85
2024/01/22 05:28:00;;;;;;;5.60;1.90;;;7.60;99.90;;;7.35;93.95;99657.53;4982303;28;20580;-85
2024/01/22 05:30:29;;;;;;;4.47;1.88;;;7.60;99.90;;;7.35;93.97;99662.81;4994063;28;20058;-84
2024/01/22 05:32:56;;;;;;;6.40;1.85;;;7.60;99.90;;;7.39;94.80;99661.38;5010651;28;20435;-84
2024/01/22 05:35:25;;;;;;;4.78;1.90;;;7.60;99.90;;;7.39;94.20;99654.25;5009550;28;20054;-83
2024/01/22 05:37:52;;;;;;;7.07;1.85;;;7.60;99.90;;;7.41;94.24;99659.31;4984589;28;20046;-84
2024/01/22 05:40:21;;;;;;;8.82;2.70;;;7.60;99.90;;;7.41;94.35;99654.00;4994031;28;20073;-84
2024/01/22 05:42:48;;;;;;;6.97;1.83;;;7.60;99.90;;;7.44;94.83;99645.66;4993980;28;20521;-84
2024/01/22 05:45:20;;;;;;;4.53;2.00;;;7.60;99.90;;;7.45;94.96;99647.28;4994488;28;20077;-87
2024/01/22 05:47:54;;;;;;;4.13;1.70;;;7.70;99.90;;;7.46;94.94;99648.88;5003042;28;20077;-86
2024/01/22 05:50:22;;;;;;;4.10;1.98;;;7.70;99.90;;;7.45;94.92;99647.28;5015321;28;20049;-85
2024/01/22 05:52:50;;;;;;;4.82;2.10;;;7.70;99.90;;;7.45;95.11;99642.78;4967051;28;20042;-84
2024/01/22 05:55:18;;;;;;;5.75;2.20;;;7.70;99.90;;;7.47;95.43;99642.59;4990256;28;20498;-85
2024/01/22 05:57:45;;;;;;;5.07;2.03;;;7.70;99.90;;;7.47;95.67;99640.75;4974175;28;20141;-85
2024/01/22 06:00:14;;;;;;;4.70;2.00;;;7.70;99.90;;;7.48;95.50;99631.75;5007608;28;20050;-86
2024/01/22 06:02:43;;;;;;;4.65;2.00;;;7.70;99.90;;;7.51;95.77;99627.03;4989646;28;20429;-85
2024/01/22 06:05:13;;;;;;;7.10;2.33;;;7.70;99.90;;;7.49;95.81;99625.41;4997685;28;20486;-85
2024/01/22 06:07:41;;;;;;;5.97;2.25;;;7.70;99.90;;;7.49;95.86;99612.16;5007296;28;20502;-85
2024/01/22 06:10:09;;;;;;;4.07;1.90;;;7.70;99.90;;;7.52;96.09;99616.22;4989260;28;20124;-85
2024/01/22 06:12:37;;;;;;;7.82;2.28;;;7.70;99.90;;;7.56;95.90;99621.91;5004487;28;20046;-85
2024/01/22 06:15:05;;;;;;;4.22;1.80;;;7.80;99.90;;;7.55;95.92;99623.75;4988784;28;20524;-83
2024/01/22 06:17:33;;;;;;;3.65;1.95;;;7.70;99.90;;;7.57;96.46;99608.44;5007265;28;20062;-85
2024/01/22 06:20:01;;;;;;;4.15;1.70;;;7.80;99.90;;;7.57;96.52;99602.34;4954837;28;20050;-84
2024/01/22 06:22:30;;;;;;;4.95;2.20;;;7.80;99.90;;;7.58;96.59;99609.25;4989647;28;20049;-84
2024/01/22 06:24:57;;;;;;;6.03;2.00;;;7.80;99.90;;;7.62;96.46;99611.28;5006597;28;20053;-85
2024/01/22 06:27:25;;;;;;;4.32;1.50;;;7.80;99.90;;;7.64;96.53;99614.53;4991327;28;20054;-84
2024/01/22 06:29:56;;;;;;;4.20;1.63;;;7.80;99.90;;;7.67;97.03;99627.38;4957347;28;20056;-84
2024/01/22 06:32:24;;;;;;;9.65;2.15;;;7.90;99.90;;;7.69;96.76;99605.91;4990898;28;20072;-84
2024/01/22 06:34:52;;;;;;;5.63;1.90;;;7.90;99.90;;;7.73;97.24;99605.28;5008198;28;20045;-84
2024/01/22 06:37:23;;;;;;;4.55;1.90;;;7.90;99.90;;;7.77;97.37;99607.50;5006651;28;20046;-84
2024/01/22 06:39:52;;;;;;;5.25;1.73;;;8.00;99.90;;;7.77;97.14;99610.97;5007212;28;20050;-85
2024/01/22 06:42:19;;;;;;;4.80;1.70;;;8.00;99.90;;;7.80;97.57;99602.56;5007674;28;20060;-84
2024/01/22 06:44:47;;;;;;;7.97;1.80;;;8.00;99.90;;;7.85;97.70;99604.59;4991896;28;20045;-85
2024/01/22 06:47:15;;;;;;;4.80;1.45;;;8.10;99.90;;;7.91;98.61;99603.75;4943767;28;20050;-85
2024/01/22 06:49:43;;;;;;;4.50;2.17;;;8.10;99.90;;;7.95;98.59;99603.09;4993547;28;20126;-85
2024/01/22 06:52:10;;;;;;;9.10;1.80;;;8.20;99.90;;;7.98;99.25;99605.31;4967451;28;20103;-83
2024/01/22 06:54:38;;;;;;;2.72;1.20;;;8.20;99.90;;;8.05;99.90;99604.44;4993560;28;20054;-84
2024/01/22 06:57:10;;;;;;;5.55;1.63;;;8.30;99.90;;;8.12;100.00;99599.91;4977797;28;20429;-83
2024/01/22 06:59:40;;;;;;;2.33;1.20;;;8.40;99.90;;;8.17;100.00;99592.91;5011031;28;20560;-83
2024/01/22 07:02:11;;;;;;;5.25;1.30;;;8.50;99.90;;;8.24;100.00;99603.47;4994070;28;20058;-84
2024/01/22 07:04:39;;;;;;;3.45;1.40;;;8.50;99.90;;;8.24;100.00;99612.25;5000930;28;20050;-84
2024/01/22 07:07:07;;;;;;;3.40;1.27;;;8.50;99.90;;;8.34;100.00;99605.63;4992011;28;20038;-83
2024/01/22 07:09:38;;;;;;;3.17;1.13;;;8.60;99.90;;;8.34;100.00;99595.81;4992745;28;20045;-84
2024/01/22 07:12:10;;;;;;;3.80;1.27;;;8.60;99.90;;;8.37;100.00;99590.09;4985111;28;20590;-84
2024/01/22 07:14:38;;;;;;;3.95;1.20;;;8.70;99.90;;;8.37;100.00;99592.78;4993326;28;20133;-83
2024/01/22 07:17:06;;;;;;;6.85;1.33;;;8.60;99.90;;;8.41;100.00;99593.16;4993151;28;20145;-84
2024/01/22 07:19:34;;;;;;;4.03;1.27;;;8.70;99.90;;;8.46;100.00;99604.75;5011003;28;20073;-83
2024/01/22 07:22:02;;;;;;;4.50;1.17;;;8.70;99.90;;;8.51;100.00;99615.53;5010439;28;20054;-87
2024/01/22 07:24:30;;;;;;;4.20;1.75;;;8.80;99.90;;;8.55;100.00;99604.47;4959905;28;20149;-85
2024/01/22 07:27:00;;;;;;;5.55;1.70;;;8.80;99.90;;;8.62;100.00;99614.00;5010933;28;20045;-84
2024/01/22 07:29:28;;;;;;;3.22;1.25;;;8.90;99.90;;;8.69;100.00;99620.06;4985300;28;20053;-83
2024/01/22 07:31:56;;;;;;;2.78;1.10;;;9.00;99.90;;;8.71;100.00;99614.53;5010514;28;20139;-84
2024/01/22 07:34:25;;;;;;;3.78;1.20;;;9.00;99.90;;;8.77;100.00;99618.97;4977560;28;20049;-83
2024/01/22 07:36:53;;;;;;;3.58;1.42;;;9.10;99.90;;;8.83;100.00;99611.94;5010061;28;20042;-84
2024/01/22 07:39:21;;;;;;;4.95;1.17;;;9.10;99.90;;;8.82;100.00;99605.00;4975569;28;20056;-83
2024/01/22 07:41:50;;;;;;;4.28;1.20;;;9.10;99.90;;;8.92;100.00;99590.16;5009566;28;20046;-84
2024/01/22 07:44:17;;;;;;;2.90;1.20;;;9.20;99.90;;;9.00;100.00;99611.16;4984464;28;20140;-84
2024/01/22 07:46:48;;;;;;;3.83;1.35;;;9.30;99.90;;;9.07;100.00;99602.25;5010580;28;20048;-84
2024/01/22 07:49:16;;;;;;;2.58;1.10;;;9.40;99.90;;;9.09;99.60;99622.31;5009136;28;20041;-83
2024/01/22 07:51:43;;;;;;;6.93;1.40;;;9.40;99.90;;;9.13;98.96;99615.50;5009593;28;20050;-84
2024/01/22 07:54:11;;;;;;;3.97;1.30;;;9.40;99.90;;;9.18;98.27;99628.94;4968098;28;20116;-84
2024/01/22 07:56:41;;;;;;;4.28;1.20;;;9.50;99.90;;;9.26;97.31;99644.59;5007763;28;20108;-84
2024/01/22 07:59:08;;;;;;;6.03;1.33;;;9.60;99.90;;;9.32;96.67;99645.56;4985053;28;20088;-84
2024/01/22 08:01:36;;;;;;;3.78;1.13;;;9.60;99.90;;;9.31;96.13;99654.56;4992282;28;20099;-84
2024/01/22 08:04:06;;;;;;;6.13;1.40;;;9.60;99.90;;;9.26;96.33;99639.28;4984148;28;20053;-84
2024/01/22 08:06:33;;;;;;;3.65;1.13;;;9.60;99.90;;;9.27;96.42;99661.38;5008954;28;20060;-84
2024/01/22 08:09:11;;;;;;;3.10;1.10;;;9.60;99.90;;;9.28;96.98;99658.50;5009477;28;20607;-84
2024/01/22 08:11:39;;;;;;;3.03;1.10;;;9.60;99.90;;;9.32;96.83;99658.88;4991181;28;20058;-85
2024/01/22 08:14:07;;;;;;;3.03;1.20;;;9.60;99.90;;;9.37;96.31;99645.72;4990202;28;20057;-84
2024/01/22 08:16:34;;;;;;;2.55;1.13;;;9.70;99.90;;;9.38;96.29;99643.88;4991567;28;20100;-84
2024/01/22 08:19:03;;;;;;;2.50;1.00;;;9.70;99.90;;;9.38;96.79;99652.66;5009800;28;20145;-84
2024/01/22 08:21:32;;;;;;;5.22;1.15;;;9.70;99.90;;;9.37;96.29;99663.50;5011459;28;20133;-84
2024/01/22 08:24:00;;;;;;;2.13;0.80;;;9.70;99.90;;;9.50;95.06;99658.84;4997045;28;20054;-84
2024/01/22 08:26:28;;;;;;;3.92;1.17;;;9.80;99.90;;;9.48;94.60;99671.56;5003297;28;20567;-84
2024/01/22 08:28:56;;;;;;;3.55;1.40;;;9.80;99.90;;;9.48;94.71;99689.38;4997263;28;20050;-84
2024/01/22 08:31:24;;;;;;;3.97;1.05;;;9.80;99.90;;;9.44;94.74;99672.25;4988384;28;20108;-83
2024/01/22 08:33:54;;;;;;;3.47;1.30;;;9.90;99.90;;;9.46;95.33;99683.47;4997895;28;20049;-84
2024/01/22 08:36:21;;;;;;;2.95;0.90;;;9.80;99.90;;;9.45;95.73;99672.00;5015938;28;20042;-84
2024/01/22 08:38:52;;;;;;;5.00;1.23;;;9.80;99.90;;;9.43;95.53;99675.94;4987335;28;20046;-83
2024/01/22 08:41:21;;;;;;;2.83;1.13;;;9.70;99.90;;;9.45;95.71;99660.56;5015340;28;20045;-84
2024/01/22 08:43:49;;;;;;;2.22;0.82;;;9.70;99.90;;;9.44;95.97;99654.41;5004706;28;20088;-84
2024/01/22 08:46:16;;;;;;;4.72;1.05;;;9.70;99.90;;;9.45;96.46;99673.84;4979027;28;20042;-83
2024/01/22 08:48:44;;;;;;;3.38;1.08;;;9.70;99.90;;;9.45;96.40;99644.59;4980755;28;21104;-83
2024/01/22 08:51:11;;;;;;;3.95;0.90;;;9.70;99.90;;;9.44;96.48;99666.91;4979556;28;20081;-84
2024/01/22 08:53:39;;;;;;;2.75;1.00;;;9.70;99.90;;;9.44;96.91;99650.94;5011223;28;20131;-83
2024/01/22 08:56:09;;;;;;;4.15;1.10;;;9.70;99.90;;;9.44;96.67;99656.28;4963190;28;20249;-84
2024/01/22 08:58:36;;;;;;;2.85;0.85;;;9.70;99.90;;;9.47;96.51;99667.28;5014491;28;20441;-83
2024/01/22 09:01:06;;;;;;;2.78;0.95;;;9.80;99.90;;;9.48;95.78;99652.13;5013649;28;20497;-83
2024/01/22 09:03:33;;;;;;;3.10;1.00;;;9.80;99.90;;;9.51;95.19;99657.78;4988958;28;20073;-83
2024/01/22 09:06:01;;;;;;;4.03;1.10;;;9.80;99.90;;;9.52;94.55;99650.66;4995691;28;20056;-83
2024/01/22 09:08:29;;;;;;;2.83;1.10;;;9.80;99.90;;;9.52;94.44;99642.66;4995956;28;20054;-83
2024/01/22 09:10:56;;;;;;;4.55;1.00;;;9.80;99.90;;;9.52;93.42;99648.78;5013204;28;20148;-85
2024/01/22 09:13:27;;;;;;;4.22;1.20;;;9.80;99.90;;;9.55;92.79;99642.19;5012956;28;20092;-83
2024/01/22 09:15:54;;;;;;;6.38;1.10;;;9.80;99.90;;;9.53;92.59;99662.91;4994267;28;20545;-84
2024/01/22 09:18:23;;;;;;;3.45;0.80;;;9.80;99.90;;;9.58;92.49;99640.94;5011186;28;20053;-84
2024/01/22 09:20:54;;;;;;;4.10;0.95;;;9.60;99.90;;;9.60;93.08;99649.50;5011499;28;20042;-85
2024/01/22 09:23:23;;;;;;;3.65;1.30;;;9.90;99.90;;;9.57;93.28;99655.31;5013323;28;20045;-84
2024/01/22 09:25:51;;;;;;;7.28;1.30;;;9.90;99.90;;;9.54;93.19;99659.22;4993190;28;20073;-84
2024/01/22 09:28:21;;;;;;;6.13;1.20;;;9.80;99.90;;;9.50;93.40;99658.03;5013960;28;20408;-86
2024/01/22 09:30:50;;;;;;;3.65;1.13;;;9.80;99.90;;;9.50;93.66;99656.19;4989091;28;20284;-85
2024/01/22 09:33:17;;;;;;;4.95;1.35;;;9.80;99.90;;;9.57;93.31;99645.47;4994546;28;20049;-83
2024/01/22 09:35:51;;;;;;;5.13;1.45;;;9.80;99.90;;;9.56;93.10;99638.50;4995799;28;20103;-89
2024/01/22 09:38:19;;;;;;;4.72;1.13;;;9.80;99.90;;;9.57;92.69;99645.47;5008584;28;20502;-85
2024/01/22 09:40:49;;;;;;;6.50;1.20;;;9.90;99.90;;;9.63;91.86;99652.53;5008290;28;20060;-84
2024/01/22 09:43:17;;;;;;;7.15;1.40;;;9.90;99.90;;;9.67;91.60;99640.41;5007929;28;20072;-83
2024/01/22 09:45:50;;;;;;;2.95;1.15;;;9.90;99.90;;;9.63;91.33;99639.22;4990436;28;20058;-84
2024/01/22 09:48:18;;;;;;;9.52;1.30;;;9.90;99.90;;;9.66;91.13;99632.63;4982470;28;20050;-85
2024/01/22 09:50:51;;;;;;;5.60;1.20;;;9.90;99.90;;;9.74;90.39;99640.31;5007028;28;20046;-84
2024/01/22 09:53:21;;;;;;;8.98;1.40;;;10.00;99.90;;;9.80;90.01;99647.38;5006271;28;20819;-84
2024/01/22 09:55:50;;;;;;;6.10;1.65;;;10.10;99.90;;;9.80;89.76;99629.56;4974127;28;20125;-84
2024/01/22 09:58:26;;;;;;;8.18;1.95;;;10.10;99.90;;;9.84;89.22;99618.47;5008190;28;20485;-84
2024/01/22 10:00:56;;;;;;;9.70;1.88;;;10.20;99.90;;;9.89;88.90;99631.91;4989947;28;20046;-84
2024/01/22 10:03:26;;;;;;;8.52;2.15;;;10.20;99.90;;;9.87;89.02;99642.00;5008260;28;20080;-84
2024/01/22 10:05:55;;;;;;;10.55;1.80;;;10.20;99.90;;;9.89;88.68;99631.91;4982786;28;20050;-84
2024/01/22 10:08:23;;;;;;;8.40;1.80;;;10.20;99.90;;;9.93;87.92;99638.41;4982545;28;20042;-85
2024/01/22 10:10:52;;;;;;;7.95;1.58;;;10.20;99.90;;;9.99;87.44;99637.50;4989998;28;20068;-85
2024/01/22 10:13:20;;;;;;;7.30;1.40;;;10.30;99.90;;;9.99;87.06;99632.97;4974392;28;20058;-85
2024/01/22 10:15:48;;;;;;;5.38;1.58;;;10.30;99.90;;;10.06;86.80;99622.25;4990163;28;20046;-84
2024/01/22 10:18:18;;;;;;;4.72;1.58;;;10.30;99.90;;;10.03;87.09;99628.81;4990485;28;20053;-84
2024/01/22 10:20:50;;;;;;;11.32;2.03;;;10.30;99.90;;;10.05;86.73;99624.09;5011708;28;20099;-84
2024/01/22 10:23:17;;;;;;;;;;;10.30;99.90;;;10.06;87.05;99633.69;5012885;28;20137;-85
2024/01/22 10:25:47;;;;;;;6.95;1.95;;;10.30;99.90;;;10.06;86.80;99630.22;4993439;28;19921;-84
2024/01/22 10:28:18;;;;;;;10.48;1.98;;;10.30;99.90;;;10.06;87.17;99628.38;4979262;28;20077;-84
2024/01/22 10:30:46;;;;;;;8.15;1.85;;;10.30;99.90;;;10.12;86.37;99629.31;5013589;28;20050;-84
2024/01/22 10:33:17;;;;;;;8.10;1.80;;;10.40;99.90;;;10.18;86.23;99619.59;5012063;28;20682;-84
2024/01/22 10:35:47;;;;;;;9.52;1.75;;;10.40;99.90;;;10.17;85.81;99623.28;5011872;28;20046;-83
2024/01/22 10:38:18;;;;;;;12.98;1.90;;;10.40;99.90;;;10.18;85.73;99598.25;5013239;28;20052;-84
2024/01/22 10:40:47;;;;;;;9.52;2.30;;;10.50;99.90;;;10.20;85.50;99602.34;5002927;28;20054;-84
2024/01/22 10:43:24;;;;;;;12.00;2.00;;;10.50;99.90;;;10.23;84.97;99612.53;4992359;28;20050;-84
2024/01/22 10:45:52;;;;;;;11.02;2.47;;;10.50;99.90;;;10.30;84.28;99618.59;4993907;28;20049;-84
2024/01/22 10:48:27;;;;;;;10.82;1.98;;;10.60;99.90;;;10.28;83.99;99601.19;5010160;28;20069;-84
2024/01/22 10:50:55;;;;;;;8.43;1.90;;;10.60;99.90;;;10.32;84.02;99615.69;5011968;28;20466;-84
2024/01/22 10:53:23;;;;;;;10.05;1.83;;;10.60;99.90;;;10.29;84.54;99600.97;4977517;28;20053;-84
2024/01/22 10:56:02;;;;;;;8.07;2.08;;;10.60;99.90;;;10.30;84.31;99591.94;5013060;28;20120;-83